This is the latest recevied weather packets stored in our database for station/object ED2YAA-3. If no packets are shown the sender has not sent any weather packets the latest 1 day(s).
| Time | Temp. | Humidity | Pressure | Rain* | Wind** | Luminosity | Snow |
|---|---|---|---|---|---|---|---|
| 1778034915 | 10° C | 86% | 993 hPa | 0 mm | 0 m/s | - | - |
| 1778033001 | 10.56° C | 86% | 993.5 hPa | 0 mm | 0 m/s | - | - |
| 1778031317 | 10.56° C | 86% | 993.6 hPa | 0 mm | 0 m/s | - | - |
| 1778029400 | 10.56° C | 86% | 993.6 hPa | 0 mm | 0 m/s | - | - |
| 1778027715 | 10.56° C | 86% | 994 hPa | 0 mm | 0 m/s | - | - |
| 1778025800 | 10.56° C | 86% | 994 hPa | 0 mm | 0 m/s | - | - |
| 1778024116 | 10.56° C | 86% | 994.1 hPa | 0 mm | 0 m/s | - | - |
| 1778022200 | 10.56° C | 86% | 994.1 hPa | 0 mm | 0 m/s | - | - |
| 1778021019 | 10.56° C | 86% | 994.1 hPa | 0 mm | 0 m/s | - | - |
| 1778020516 | 10.56° C | 86% | 994.3 hPa | 0 mm | 0 m/s | - | - |
| 1778017418 | 10.56° C | 85% | 994.3 hPa | 0 mm | 0 m/s | - | - |
| 1778016915 | 10.56° C | 85% | 994.4 hPa | 0 mm | 0 m/s | - | - |
| 1778013819 | 11.67° C | 83% | 994.2 hPa | 0 mm | 0 m/s | - | - |
| 1778013316 | 11.67° C | 83% | 994.4 hPa | 0 mm | 0 m/s | - | - |
| 1778010218 | 12.78° C | 81% | 993.9 hPa | 0 mm | 0 m/s | - | - |
| 1778009716 | 12.78° C | 81% | 993.7 hPa | 0 mm | 0 m/s | - | - |
| 1778006619 | 13.33° C | 78% | 993.6 hPa | 0 mm | 0 m/s | - | - |
| 1778006116 | 13.89° C | 77% | 993.6 hPa | 0 mm | 0 m/s | - | - |
| 1778003018 | 14.44° C | 75% | 993.5 hPa | 0 mm | 0 m/s | - | - |
| 1778002515 | 14.44° C | 75% | 993.3 hPa | 0 mm | 0 m/s | - | - |
| 1777999418 | 15.56° C | 75% | 993.6 hPa | 0 mm | 0 m/s | - | - |
| 1777998915 | 15.56° C | 74% | 993.4 hPa | 0 mm | 0 m/s | - | - |
| 1777995817 | 16.11° C | 69% | 993 hPa | 0 mm | 0 m/s | - | - |
| 1777995314 | 16.67° C | 68% | 992.9 hPa | 0 mm | 0 m/s | - | - |
| 1777992219 | 15.56° C | 71% | 993.3 hPa | 0 mm | 0 m/s | - | - |
* Rain latest hour (hover to see other rain measurements)
** Current wind speed in m/s (hover to see current wind gust speed)